KMYR/MYR METAR and TAF weather

Enter ICAO airport designator
Station Type Date Time Source
KMYR METAR 2019/06/20 06:56 UTC NOAA

KMYR 200656Z AUTO 25007KT 10SM CLR 25/23 A2979 RMK AO2 SLP089 T02500233


Station Type Date Time Source
KMYR Decoded METAR 2019/06/20 06:56 UTC NOAA

Myrtle Beach Air Force Base, SC, United States (KMYR) 33-41N 078-56W 8M
Jun 20, 2019 - 02:56 AM EDT / 2019.06.20 0656 UTC
Wind: from the WSW (250 degrees) at 8 MPH (7 KT):0
Visibility: 10 mile(s):0
Sky conditions: clear
Temperature: 77.0 F (25.0 C)
Dew Point: 73.9 F (23.3 C)
Relative Humidity: 90%
Pressure (altimeter): 29.79 in. Hg (1008 hPa)
ob: KMYR 200656Z AUTO 25007KT 10SM CLR 25/23 A2979 RMK AO2 SLP089 T02500233
cycle: 7

Station Type Date Time Source
KMYR TAF 2019/06/20 06:33 UTC NOAA

TAF KMYR 200530Z 2006/2106 23010KT P6SM SKC
FM201600 22017G24KT P6SM SCT120 BKN200
FM210000 25016G33KT P6SM VCTS BKN060CB
TEMPO 2100/2102 1/2SM TSRA BKN040CB
FM210200 22013G23KT P6SM VCTS BKN070CB
FM210400 23012KT P6SM BKN100

Example: see airport list